sensor_id;sensor_type;location;lat;lon;timestamp;pressure;altitude;pressure_sealevel;temperature;humidity
48606;BME280;8482;54.396;18.590;2023-04-24T00:00:20;100510.34;;;13.75;77.49
48606;BME280;8482;54.396;18.590;2023-04-24T00:02:46;100509.81;;;13.72;77.73
48606;BME280;8482;54.396;18.590;2023-04-24T00:05:14;100504.09;;;13.67;77.74
48606;BME280;8482;54.396;18.590;2023-04-24T00:07:42;100495.56;;;13.63;77.43
48606;BME280;8482;54.396;18.590;2023-04-24T00:10:08;100510.56;;;13.64;77.79
48606;BME280;8482;54.396;18.590;2023-04-24T00:12:36;100521.38;;;13.62;77.94
48606;BME280;8482;54.396;18.590;2023-04-24T00:15:02;100518.00;;;13.60;77.83
48606;BME280;8482;54.396;18.590;2023-04-24T00:17:29;100512.97;;;13.57;78.02
48606;BME280;8482;54.396;18.590;2023-04-24T00:19:54;100512.44;;;13.54;77.90
48606;BME280;8482;54.396;18.590;2023-04-24T00:22:30;100517.50;;;13.47;77.72
48606;BME280;8482;54.396;18.590;2023-04-24T00:24:57;100513.59;;;13.41;78.19
48606;BME280;8482;54.396;18.590;2023-04-24T00:27:23;100517.50;;;13.37;78.48
48606;BME280;8482;54.396;18.590;2023-04-24T00:29:49;100512.47;;;13.34;78.54
48606;BME280;8482;54.396;18.590;2023-04-24T00:32:15;100515.13;;;13.34;78.32
48606;BME280;8482;54.396;18.590;2023-04-24T00:34:41;100521.31;;;13.34;78.01
48606;BME280;8482;54.396;18.590;2023-04-24T00:37:07;100506.88;;;13.27;77.79
48606;BME280;8482;54.396;18.590;2023-04-24T00:39:33;100512.75;;;13.31;77.51
48606;BME280;8482;54.396;18.590;2023-04-24T00:41:59;100514.72;;;13.29;77.21
48606;BME280;8482;54.396;18.590;2023-04-24T00:44:25;100506.16;;;13.25;77.35
48606;BME280;8482;54.396;18.590;2023-04-24T00:46:51;100502.13;;;13.21;77.15
48606;BME280;8482;54.396;18.590;2023-04-24T00:49:23;100497.66;;;13.12;77.39
48606;BME280;8482;54.396;18.590;2023-04-24T00:51:49;100502.16;;;13.11;77.43
48606;BME280;8482;54.396;18.590;2023-04-24T00:54:17;100498.78;;;13.09;77.91
48606;BME280;8482;54.396;18.590;2023-04-24T00:56:44;100503.41;;;13.07;77.53
48606;BME280;8482;54.396;18.590;2023-04-24T00:59:12;100497.69;;;13.02;77.72
48606;BME280;8482;54.396;18.590;2023-04-24T01:01:40;100505.00;;;13.00;77.93
48606;BME280;8482;54.396;18.590;2023-04-24T01:04:13;100487.59;;;12.96;78.01
48606;BME280;8482;54.396;18.590;2023-04-24T01:06:41;100499.78;;;12.98;77.85
48606;BME280;8482;54.396;18.590;2023-04-24T01:09:12;100501.78;;;12.96;78.03
48606;BME280;8482;54.396;18.590;2023-04-24T01:11:41;100500.22;;;12.94;77.44
48606;BME280;8482;54.396;18.590;2023-04-24T01:14:07;100492.66;;;12.89;77.94
48606;BME280;8482;54.396;18.590;2023-04-24T01:16:33;100500.81;;;12.87;78.19
48606;BME280;8482;54.396;18.590;2023-04-24T01:18:59;100495.34;;;12.79;78.30
48606;BME280;8482;54.396;18.590;2023-04-24T01:21:28;100501.38;;;12.81;78.77
48606;BME280;8482;54.396;18.590;2023-04-24T01:23:55;100503.31;;;12.79;78.45
48606;BME280;8482;54.396;18.590;2023-04-24T01:26:23;100482.75;;;12.71;78.58
48606;BME280;8482;54.396;18.590;2023-04-24T01:28:49;100498.44;;;12.75;78.41
48606;BME280;8482;54.396;18.590;2023-04-24T01:31:15;100500.97;;;12.76;78.59
48606;BME280;8482;54.396;18.590;2023-04-24T01:33:42;100504.03;;;12.71;78.26
48606;BME280;8482;54.396;18.590;2023-04-24T01:36:11;100492.13;;;12.66;78.15
48606;BME280;8482;54.396;18.590;2023-04-24T01:38:37;100500.97;;;12.66;78.43
48606;BME280;8482;54.396;18.590;2023-04-24T01:41:03;100493.09;;;12.65;78.98
48606;BME280;8482;54.396;18.590;2023-04-24T01:43:29;100497.44;;;12.66;79.09
48606;BME280;8482;54.396;18.590;2023-04-24T01:45:55;100494.78;;;12.66;78.53
48606;BME280;8482;54.396;18.590;2023-04-24T01:48:22;100494.94;;;12.64;78.66
48606;BME280;8482;54.396;18.590;2023-04-24T01:50:48;100497.06;;;12.61;78.38
48606;BME280;8482;54.396;18.590;2023-04-24T01:53:13;100482.06;;;12.60;78.69
48606;BME280;8482;54.396;18.590;2023-04-24T01:55:40;100473.22;;;12.59;79.08
48606;BME280;8482;54.396;18.590;2023-04-24T01:58:07;100481.38;;;12.57;78.86
48606;BME280;8482;54.396;18.590;2023-04-24T02:00:33;100472.81;;;12.54;78.60
48606;BME280;8482;54.396;18.590;2023-04-24T02:02:59;100475.34;;;12.55;78.79
48606;BME280;8482;54.396;18.590;2023-04-24T02:05:24;100467.63;;;12.52;78.85
48606;BME280;8482;54.396;18.590;2023-04-24T02:07:50;100464.28;;;12.50;78.66
48606;BME280;8482;54.396;18.590;2023-04-24T02:10:16;100467.34;;;12.46;79.14
48606;BME280;8482;54.396;18.590;2023-04-24T02:12:42;100478.00;;;12.46;78.94
48606;BME280;8482;54.396;18.590;2023-04-24T02:15:08;100459.38;;;12.46;78.91
48606;BME280;8482;54.396;18.590;2023-04-24T02:17:34;100459.53;;;12.44;78.94
48606;BME280;8482;54.396;18.590;2023-04-24T02:20:00;100470.16;;;12.44;78.99
48606;BME280;8482;54.396;18.590;2023-04-24T02:22:26;100465.00;;;12.43;78.99
48606;BME280;8482;54.396;18.590;2023-04-24T02:24:52;100453.50;;;12.42;78.97
48606;BME280;8482;54.396;18.590;2023-04-24T02:27:17;100452.78;;;12.40;79.19
48606;BME280;8482;54.396;18.590;2023-04-24T02:29:43;100447.91;;;12.35;79.14
48606;BME280;8482;54.396;18.590;2023-04-24T02:32:09;100445.13;;;12.37;79.66
48606;BME280;8482;54.396;18.590;2023-04-24T02:34:38;100432.91;;;12.34;79.55
48606;BME280;8482;54.396;18.590;2023-04-24T02:37:04;100438.38;;;12.33;79.07
48606;BME280;8482;54.396;18.590;2023-04-24T02:39:30;100429.00;;;12.29;79.38
48606;BME280;8482;54.396;18.590;2023-04-24T02:41:55;100435.19;;;12.29;79.14
48606;BME280;8482;54.396;18.590;2023-04-24T02:44:21;100448.59;;;12.27;78.96
48606;BME280;8482;54.396;18.590;2023-04-24T02:46:48;100437.25;;;12.25;79.10
48606;BME280;8482;54.396;18.590;2023-04-24T02:49:13;100438.94;;;12.26;79.08
48606;BME280;8482;54.396;18.590;2023-04-24T02:51:39;100440.78;;;12.26;79.02
48606;BME280;8482;54.396;18.590;2023-04-24T02:54:08;100436.59;;;12.23;78.47
48606;BME280;8482;54.396;18.590;2023-04-24T02:56:35;100425.09;;;12.23;78.64
48606;BME280;8482;54.396;18.590;2023-04-24T02:59:01;100419.22;;;12.19;78.84
48606;BME280;8482;54.396;18.590;2023-04-24T03:01:27;100427.19;;;12.19;78.95
48606;BME280;8482;54.396;18.590;2023-04-24T03:03:53;100413.34;;;12.16;79.09
48606;BME280;8482;54.396;18.590;2023-04-24T03:06:19;100418.34;;;12.19;78.79
48606;BME280;8482;54.396;18.590;2023-04-24T03:08:46;100411.50;;;12.16;78.46
48606;BME280;8482;54.396;18.590;2023-04-24T03:11:12;100407.44;;;12.12;78.61
48606;BME280;8482;54.396;18.590;2023-04-24T03:13:38;100413.34;;;12.16;78.38
48606;BME280;8482;54.396;18.590;2023-04-24T03:16:04;100414.31;;;12.15;78.21
48606;BME280;8482;54.396;18.590;2023-04-24T03:18:30;100415.41;;;12.12;78.10
48606;BME280;8482;54.396;18.590;2023-04-24T03:20:56;100420.88;;;12.10;78.18
48606;BME280;8482;54.396;18.590;2023-04-24T03:23:22;100418.78;;;12.04;78.03
48606;BME280;8482;54.396;18.590;2023-04-24T03:25:47;100423.00;;;12.07;78.15
48606;BME280;8482;54.396;18.590;2023-04-24T03:28:14;100428.59;;;12.04;78.41
48606;BME280;8482;54.396;18.590;2023-04-24T03:30:40;100428.84;;;12.01;78.00
48606;BME280;8482;54.396;18.590;2023-04-24T03:33:07;100428.03;;;12.00;78.29
48606;BME280;8482;54.396;18.590;2023-04-24T03:35:32;100422.94;;;11.97;78.23
48606;BME280;8482;54.396;18.590;2023-04-24T03:37:58;100427.44;;;11.96;78.13
48606;BME280;8482;54.396;18.590;2023-04-24T03:40:24;100422.41;;;11.93;78.40
48606;BME280;8482;54.396;18.590;2023-04-24T03:42:50;100423.63;;;11.89;78.11
48606;BME280;8482;54.396;18.590;2023-04-24T03:45:16;100417.75;;;11.86;77.82
48606;BME280;8482;54.396;18.590;2023-04-24T03:47:41;100414.25;;;11.85;78.09
48606;BME280;8482;54.396;18.590;2023-04-24T03:50:08;100423.34;;;11.83;78.20
48606;BME280;8482;54.396;18.590;2023-04-24T03:52:34;100416.50;;;11.80;77.50
48606;BME280;8482;54.396;18.590;2023-04-24T03:54:59;100419.28;;;11.78;77.94
48606;BME280;8482;54.396;18.590;2023-04-24T03:57:25;100420.28;;;11.77;77.73
48606;BME280;8482;54.396;18.590;2023-04-24T03:59:51;100416.91;;;11.75;77.78
48606;BME280;8482;54.396;18.590;2023-04-24T04:02:19;100416.06;;;11.75;77.57
48606;BME280;8482;54.396;18.590;2023-04-24T04:04:44;100419.84;;;11.72;77.50
48606;BME280;8482;54.396;18.590;2023-04-24T04:07:10;100420.00;;;11.71;77.79
48606;BME280;8482;54.396;18.590;2023-04-24T04:09:36;100419.28;;;11.69;77.55
48606;BME280;8482;54.396;18.590;2023-04-24T04:12:02;100425.56;;;11.68;77.87
48606;BME280;8482;54.396;18.590;2023-04-24T04:14:28;100415.91;;;11.67;77.88
48606;BME280;8482;54.396;18.590;2023-04-24T04:16:54;100423.72;;;11.68;78.16
48606;BME280;8482;54.396;18.590;2023-04-24T04:19:20;100421.50;;;11.63;77.83
48606;BME280;8482;54.396;18.590;2023-04-24T04:21:46;100435.22;;;11.69;78.22
48606;BME280;8482;54.396;18.590;2023-04-24T04:24:16;100432.56;;;11.69;77.77
48606;BME280;8482;54.396;18.590;2023-04-24T04:26:41;100417.84;;;11.64;77.86
48606;BME280;8482;54.396;18.590;2023-04-24T04:29:13;100425.69;;;11.66;77.47
48606;BME280;8482;54.396;18.590;2023-04-24T04:31:39;100438.84;;;11.68;77.59
48606;BME280;8482;54.396;18.590;2023-04-24T04:34:05;100438.69;;;11.69;78.05
48606;BME280;8482;54.396;18.590;2023-04-24T04:36:31;100430.44;;;11.62;77.68
48606;BME280;8482;54.396;18.590;2023-04-24T04:38:58;100432.41;;;11.70;77.67
48606;BME280;8482;54.396;18.590;2023-04-24T04:41:24;100431.28;;;11.73;77.63
48606;BME280;8482;54.396;18.590;2023-04-24T04:43:50;100431.28;;;11.73;77.29
48606;BME280;8482;54.396;18.590;2023-04-24T04:46:18;100425.16;;;11.72;77.27
48606;BME280;8482;54.396;18.590;2023-04-24T04:48:44;100429.34;;;11.75;77.07
48606;BME280;8482;54.396;18.590;2023-04-24T04:51:10;100433.13;;;11.72;77.09
48606;BME280;8482;54.396;18.590;2023-04-24T04:53:35;100433.13;;;11.72;77.48
48606;BME280;8482;54.396;18.590;2023-04-24T04:56:01;100417.59;;;11.68;77.44
48606;BME280;8482;54.396;18.590;2023-04-24T04:58:27;100428.63;;;11.73;77.12
48606;BME280;8482;54.396;18.590;2023-04-24T05:00:53;100422.50;;;11.72;77.55
48606;BME280;8482;54.396;18.590;2023-04-24T05:03:19;100424.44;;;11.70;77.50
48606;BME280;8482;54.396;18.590;2023-04-24T05:05:45;100427.66;;;11.74;77.70
48606;BME280;8482;54.396;18.590;2023-04-24T05:08:11;100420.53;;;11.74;77.79
48606;BME280;8482;54.396;18.590;2023-04-24T05:10:36;100415.34;;;11.73;77.75
48606;BME280;8482;54.396;18.590;2023-04-24T05:13:03;100414.25;;;11.75;78.32
48606;BME280;8482;54.396;18.590;2023-04-24T05:15:30;100415.22;;;11.74;78.51
48606;BME280;8482;54.396;18.590;2023-04-24T05:17:56;100412.44;;;11.76;78.59
48606;BME280;8482;54.396;18.590;2023-04-24T05:20:22;100409.78;;;11.76;78.41
48606;BME280;8482;54.396;18.590;2023-04-24T05:22:48;100411.59;;;11.75;78.22
48606;BME280;8482;54.396;18.590;2023-04-24T05:25:14;100416.63;;;11.78;77.92
48606;BME280;8482;54.396;18.590;2023-04-24T05:27:40;100403.63;;;11.75;77.84
48606;BME280;8482;54.396;18.590;2023-04-24T05:30:07;100407.66;;;11.79;77.65
48606;BME280;8482;54.396;18.590;2023-04-24T05:32:33;100416.50;;;11.80;77.79
48606;BME280;8482;54.396;18.590;2023-04-24T05:34:59;100414.81;;;11.79;77.70
48606;BME280;8482;54.396;18.590;2023-04-24T05:37:25;100411.19;;;11.80;77.57
48606;BME280;8482;54.396;18.590;2023-04-24T05:39:51;100410.31;;;11.79;78.13
48606;BME280;8482;54.396;18.590;2023-04-24T05:42:17;100401.38;;;11.80;78.27
48606;BME280;8482;54.396;18.590;2023-04-24T05:44:42;100407.28;;;11.84;78.26
48606;BME280;8482;54.396;18.590;2023-04-24T05:47:09;100406.16;;;11.87;78.61
48606;BME280;8482;54.396;18.590;2023-04-24T05:49:34;100410.34;;;11.89;78.11
48606;BME280;8482;54.396;18.590;2023-04-24T05:52:00;100413.97;;;11.88;77.62
48606;BME280;8482;54.396;18.590;2023-04-24T05:54:26;100401.81;;;11.86;77.56
48606;BME280;8482;54.396;18.590;2023-04-24T05:56:52;100399.88;;;11.88;76.96
48606;BME280;8482;54.396;18.590;2023-04-24T05:59:19;100408.09;;;11.85;77.00
48606;BME280;8482;54.396;18.590;2023-04-24T06:01:45;100409.09;;;11.84;76.75
48606;BME280;8482;54.396;18.590;2023-04-24T06:04:12;100411.75;;;11.84;76.96
48606;BME280;8482;54.396;18.590;2023-04-24T06:06:39;100411.59;;;11.85;77.23
48606;BME280;8482;54.396;18.590;2023-04-24T06:09:05;100410.50;;;11.88;77.14
48606;BME280;8482;54.396;18.590;2023-04-24T06:11:31;100408.66;;;11.88;77.04
48606;BME280;8482;54.396;18.590;2023-04-24T06:13:57;100411.75;;;11.93;76.79
48606;BME280;8482;54.396;18.590;2023-04-24T06:16:23;100402.50;;;11.98;76.86
48606;BME280;8482;54.396;18.590;2023-04-24T06:18:49;100405.63;;;12.03;76.51
48606;BME280;8482;54.396;18.590;2023-04-24T06:21:16;100396.69;;;12.04;76.16
48606;BME280;8482;54.396;18.590;2023-04-24T06:23:42;100392.78;;;12.08;76.21
48606;BME280;8482;54.396;18.590;2023-04-24T06:26:08;100398.38;;;12.15;76.38
48606;BME280;8482;54.396;18.590;2023-04-24T06:28:34;100399.75;;;12.19;75.58
48606;BME280;8482;54.396;18.590;2023-04-24T06:31:00;100391.66;;;12.20;74.85
48606;BME280;8482;54.396;18.590;2023-04-24T06:33:26;100388.84;;;12.22;74.45
48606;BME280;8482;54.396;18.590;2023-04-24T06:35:52;100376.66;;;12.19;74.64
48606;BME280;8482;54.396;18.590;2023-04-24T06:38:17;100383.78;;;12.29;74.04
48606;BME280;8482;54.396;18.590;2023-04-24T06:40:43;100382.81;;;12.30;74.17
48606;BME280;8482;54.396;18.590;2023-04-24T06:43:09;100387.97;;;12.31;73.93
48606;BME280;8482;54.396;18.590;2023-04-24T06:45:36;100394.00;;;12.33;73.63
48606;BME280;8482;54.396;18.590;2023-04-24T06:48:02;100388.25;;;12.38;73.25
48606;BME280;8482;54.396;18.590;2023-04-24T06:50:28;100380.44;;;12.36;73.00
48606;BME280;8482;54.396;18.590;2023-04-24T06:52:54;100387.00;;;12.42;72.81
48606;BME280;8482;54.396;18.590;2023-04-24T06:55:20;100385.75;;;12.46;73.07
48606;BME280;8482;54.396;18.590;2023-04-24T06:57:45;100377.47;;;12.49;72.58
48606;BME280;8482;54.396;18.590;2023-04-24T07:00:12;100380.69;;;12.53;72.97
48606;BME280;8482;54.396;18.590;2023-04-24T07:02:38;100363.59;;;12.55;73.42
48606;BME280;8482;54.396;18.590;2023-04-24T07:05:05;100370.84;;;12.63;73.49
48606;BME280;8482;54.396;18.590;2023-04-24T07:07:32;100373.34;;;12.65;73.67
48606;BME280;8482;54.396;18.590;2023-04-24T07:09:58;100377.56;;;12.67;73.94
48606;BME280;8482;54.396;18.590;2023-04-24T07:12:24;100373.34;;;12.65;74.00
48606;BME280;8482;54.396;18.590;2023-04-24T07:14:50;100378.56;;;12.66;74.51
48606;BME280;8482;54.396;18.590;2023-04-24T07:17:16;100365.53;;;12.63;74.79
48606;BME280;8482;54.396;18.590;2023-04-24T07:19:42;100359.38;;;12.63;74.92
48606;BME280;8482;54.396;18.590;2023-04-24T07:22:08;100350.00;;;12.59;75.49
48606;BME280;8482;54.396;18.590;2023-04-24T07:24:34;100358.69;;;12.61;75.82
48606;BME280;8482;54.396;18.590;2023-04-24T07:26:59;100352.66;;;12.59;75.89
48606;BME280;8482;54.396;18.590;2023-04-24T07:29:27;100345.66;;;12.57;76.68
48606;BME280;8482;54.396;18.590;2023-04-24T07:31:52;100354.06;;;12.63;76.86
48606;BME280;8482;54.396;18.590;2023-04-24T07:34:19;100330.69;;;12.56;77.26
48606;BME280;8482;54.396;18.590;2023-04-24T07:36:46;100340.59;;;12.64;77.38
48606;BME280;8482;54.396;18.590;2023-04-24T07:39:12;100339.75;;;12.64;77.96
48606;BME280;8482;54.396;18.590;2023-04-24T07:41:38;100336.09;;;12.65;78.10
48606;BME280;8482;54.396;18.590;2023-04-24T07:44:03;100337.94;;;12.64;78.60
48606;BME280;8482;54.396;18.590;2023-04-24T07:46:30;100320.28;;;12.63;78.75
48606;BME280;8482;54.396;18.590;2023-04-24T07:48:56;100329.09;;;12.64;79.24
48606;BME280;8482;54.396;18.590;2023-04-24T07:51:22;100321.44;;;12.61;79.44
48606;BME280;8482;54.396;18.590;2023-04-24T07:53:48;100336.09;;;12.65;79.54
48606;BME280;8482;54.396;18.590;2023-04-24T07:56:14;100334.59;;;12.62;79.63
48606;BME280;8482;54.396;18.590;2023-04-24T07:58:40;100333.44;;;12.65;80.25
48606;BME280;8482;54.396;18.590;2023-04-24T08:01:06;100328.56;;;12.60;80.64
48606;BME280;8482;54.396;18.590;2023-04-24T08:03:32;100329.09;;;12.64;80.99
48606;BME280;8482;54.396;18.590;2023-04-24T08:05:58;100322.13;;;12.63;80.90
48606;BME280;8482;54.396;18.590;2023-04-24T08:08:24;100326.84;;;12.69;81.75
48606;BME280;8482;54.396;18.590;2023-04-24T08:10:50;100332.72;;;12.72;81.94
48606;BME280;8482;54.396;18.590;2023-04-24T08:13:16;100328.25;;;12.73;81.77
48606;BME280;8482;54.396;18.590;2023-04-24T08:15:42;100331.47;;;12.77;82.11
48606;BME280;8482;54.396;18.590;2023-04-24T08:18:08;100320.66;;;12.78;81.94
48606;BME280;8482;54.396;18.590;2023-04-24T08:20:34;100331.88;;;12.82;82.49
48606;BME280;8482;54.396;18.590;2023-04-24T08:23:00;100326.94;;;12.87;82.86
48606;BME280;8482;54.396;18.590;2023-04-24T08:25:26;100319.09;;;12.85;82.89
48606;BME280;8482;54.396;18.590;2023-04-24T08:27:52;100324.50;;;12.94;82.33
48606;BME280;8482;54.396;18.590;2023-04-24T08:30:18;100318.06;;;12.96;82.69
48606;BME280;8482;54.396;18.590;2023-04-24T08:32:44;100319.31;;;13.02;82.73
48606;BME280;8482;54.396;18.590;2023-04-24T08:35:10;100315.78;;;13.01;82.71
48606;BME280;8482;54.396;18.590;2023-04-24T08:37:37;100327.66;;;13.07;82.59
48606;BME280;8482;54.396;18.590;2023-04-24T08:40:14;100322.75;;;13.12;82.99
48606;BME280;8482;54.396;18.590;2023-04-24T08:42:43;100330.97;;;13.19;82.95
48606;BME280;8482;54.396;18.590;2023-04-24T08:45:12;100320.88;;;13.23;83.14
48606;BME280;8482;54.396;18.590;2023-04-24T08:47:40;100320.41;;;13.27;83.43
48606;BME280;8482;54.396;18.590;2023-04-24T08:50:08;100313.94;;;13.30;83.09
48606;BME280;8482;54.396;18.590;2023-04-24T08:52:35;100318.28;;;13.31;82.51
48606;BME280;8482;54.396;18.590;2023-04-24T08:55:01;100325.69;;;13.37;82.60
48606;BME280;8482;54.396;18.590;2023-04-24T08:57:28;100317.53;;;13.39;82.44
48606;BME280;8482;54.396;18.590;2023-04-24T08:59:58;100325.97;;;13.44;82.30
48606;BME280;8482;54.396;18.590;2023-04-24T09:02:25;100312.63;;;13.44;82.13
48606;BME280;8482;54.396;18.590;2023-04-24T09:04:52;100320.88;;;13.51;81.68
48606;BME280;8482;54.396;18.590;2023-04-24T09:07:19;100318.19;;;13.51;81.46
48606;BME280;8482;54.396;18.590;2023-04-24T09:09:50;100329.91;;;13.58;81.66
48606;BME280;8482;54.396;18.590;2023-04-24T09:12:17;100313.50;;;13.62;82.14
48606;BME280;8482;54.396;18.590;2023-04-24T09:14:45;100311.19;;;13.68;81.65
48606;BME280;8482;54.396;18.590;2023-04-24T09:17:14;100308.91;;;13.73;81.70
48606;BME280;8482;54.396;18.590;2023-04-24T09:19:40;100311.28;;;13.76;81.68
48606;BME280;8482;54.396;18.590;2023-04-24T09:22:07;100303.13;;;13.77;81.74
48606;BME280;8482;54.396;18.590;2023-04-24T09:24:34;100313.84;;;13.86;82.06
48606;BME280;8482;54.396;18.590;2023-04-24T09:27:01;100298.53;;;13.88;82.03
48606;BME280;8482;54.396;18.590;2023-04-24T09:29:28;100299.63;;;13.95;82.35
48606;BME280;8482;54.396;18.590;2023-04-24T09:31:54;100294.94;;;13.97;81.96
48606;BME280;8482;54.396;18.590;2023-04-24T09:34:27;100292.34;;;14.05;82.12
48606;BME280;8482;54.396;18.590;2023-04-24T09:36:54;100298.03;;;14.10;81.93
48606;BME280;8482;54.396;18.590;2023-04-24T09:39:20;100294.75;;;14.17;81.88
48606;BME280;8482;54.396;18.590;2023-04-24T09:41:55;100289.13;;;14.20;81.84
48606;BME280;8482;54.396;18.590;2023-04-24T09:44:27;100289.16;;;14.28;81.01
48606;BME280;8482;54.396;18.590;2023-04-24T09:46:58;100286.88;;;14.33;81.29
48606;BME280;8482;54.396;18.590;2023-04-24T09:49:28;100282.88;;;14.37;80.67
48606;BME280;8482;54.396;18.590;2023-04-24T09:52:09;100264.56;;;14.43;80.70
48606;BME280;8482;54.396;18.590;2023-04-24T09:54:36;100268.28;;;14.50;80.33
48606;BME280;8482;54.396;18.590;2023-04-24T09:57:02;100264.97;;;14.56;80.22
48606;BME280;8482;54.396;18.590;2023-04-24T09:59:29;100272.34;;;14.62;80.33
48606;BME280;8482;54.396;18.590;2023-04-24T10:01:56;100268.75;;;14.71;80.54
48606;BME280;8482;54.396;18.590;2023-04-24T10:04:28;100272.44;;;14.79;79.84
48606;BME280;8482;54.396;18.590;2023-04-24T10:06:55;100265.47;;;14.86;79.72
48606;BME280;8482;54.396;18.590;2023-04-24T10:09:26;100267.34;;;14.94;79.64
48606;BME280;8482;54.396;18.590;2023-04-24T10:11:54;100263.88;;;15.01;79.53
48606;BME280;8482;54.396;18.590;2023-04-24T10:14:23;100253.38;;;15.08;79.24
48606;BME280;8482;54.396;18.590;2023-04-24T10:16:53;100261.22;;;15.18;79.10
48606;BME280;8482;54.396;18.590;2023-04-24T10:19:19;100253.06;;;15.28;78.88
48606;BME280;8482;54.396;18.590;2023-04-24T10:21:46;100248.41;;;15.38;78.72
48606;BME280;8482;54.396;18.590;2023-04-24T10:24:18;100244.56;;;15.49;77.81
48606;BME280;8482;54.396;18.590;2023-04-24T10:26:46;100244.06;;;15.62;77.68
48606;BME280;8482;54.396;18.590;2023-04-24T10:29:16;100234.22;;;15.71;76.92
48606;BME280;8482;54.396;18.590;2023-04-24T10:31:43;100240.78;;;15.85;76.44
48606;BME280;8482;54.396;18.590;2023-04-24T10:34:13;100233.72;;;16.00;76.22
48606;BME280;8482;54.396;18.590;2023-04-24T10:36:45;100233.88;;;16.15;75.65
48606;BME280;8482;54.396;18.590;2023-04-24T10:39:13;100232.44;;;16.36;75.37
48606;BME280;8482;54.396;18.590;2023-04-24T10:41:44;100228.38;;;16.57;75.11
48606;BME280;8482;54.396;18.590;2023-04-24T10:44:15;100224.44;;;16.76;74.03
48606;BME280;8482;54.396;18.590;2023-04-24T10:46:46;100230.91;;;16.98;72.53
48606;BME280;8482;54.396;18.590;2023-04-24T10:49:15;100229.31;;;17.12;71.27
48606;BME280;8482;54.396;18.590;2023-04-24T10:51:51;100235.38;;;17.29;70.60
48606;BME280;8482;54.396;18.590;2023-04-24T10:54:23;100221.22;;;17.43;69.81
48606;BME280;8482;54.396;18.590;2023-04-24T10:57:25;100215.06;;;17.58;68.99
48606;BME280;8482;54.396;18.590;2023-04-24T10:59:39;100219.28;;;17.75;68.17
48606;BME280;8482;54.396;18.590;2023-04-24T11:02:08;100209.03;;;17.94;67.85
48606;BME280;8482;54.396;18.590;2023-04-24T11:04:34;100219.94;;;18.16;67.32
48606;BME280;8482;54.396;18.590;2023-04-24T11:07:02;100206.78;;;18.36;66.18
48606;BME280;8482;54.396;18.590;2023-04-24T11:09:31;100195.38;;;18.49;64.33
48606;BME280;8482;54.396;18.590;2023-04-24T11:17:33;100215.50;;;18.75;61.18
48606;BME280;8482;54.396;18.590;2023-04-24T11:20:04;100211.00;;;18.75;61.04
48606;BME280;8482;54.396;18.590;2023-04-24T11:22:35;100215.78;;;18.80;60.26
48606;BME280;8482;54.396;18.590;2023-04-24T11:25:05;100199.69;;;18.80;60.36
48606;BME280;8482;54.396;18.590;2023-04-24T11:27:40;100203.25;;;18.87;60.41
48606;BME280;8482;54.396;18.590;2023-04-24T11:30:07;100202.06;;;18.90;60.11
48606;BME280;8482;54.396;18.590;2023-04-24T11:35:14;100189.28;;;18.92;59.46
48606;BME280;8482;54.396;18.590;2023-04-24T11:37:50;100187.50;;;18.99;59.05
48606;BME280;8482;54.396;18.590;2023-04-24T11:40:18;100190.06;;;19.07;58.93
48606;BME280;8482;54.396;18.590;2023-04-24T11:42:53;100192.00;;;19.13;58.66
48606;BME280;8482;54.396;18.590;2023-04-24T11:45:29;100191.44;;;19.18;58.58
48606;BME280;8482;54.396;18.590;2023-04-24T11:47:56;100177.41;;;19.23;58.25
48606;BME280;8482;54.396;18.590;2023-04-24T11:50:26;100182.84;;;19.29;58.09
48606;BME280;8482;54.396;18.590;2023-04-24T11:52:53;100185.59;;;19.36;57.88
48606;BME280;8482;54.396;18.590;2023-04-24T11:57:51;100168.09;;;19.47;57.55
48606;BME280;8482;54.396;18.590;2023-04-24T12:00:28;100172.53;;;19.55;57.37
48606;BME280;8482;54.396;18.590;2023-04-24T12:03:12;100168.84;;;19.63;56.42
48606;BME280;8482;54.396;18.590;2023-04-24T12:05:39;100156.66;;;19.67;56.17
48606;BME280;8482;54.396;18.590;2023-04-24T12:08:06;100162.09;;;19.73;55.19
48606;BME280;8482;54.396;18.590;2023-04-24T12:10:33;100148.69;;;19.80;53.85
48606;BME280;8482;54.396;18.590;2023-04-24T12:12:59;100160.50;;;19.86;51.78
48606;BME280;8482;54.396;18.590;2023-04-24T12:15:27;100144.25;;;19.94;49.57
48606;BME280;8482;54.396;18.590;2023-04-24T12:17:54;100149.84;;;19.99;49.62
48606;BME280;8482;54.396;18.590;2023-04-24T12:20:32;100148.72;;;20.15;49.77
48606;BME280;8482;54.396;18.590;2023-04-24T12:23:00;100149.81;;;20.28;49.32
48606;BME280;8482;54.396;18.590;2023-04-24T12:25:29;100155.44;;;20.40;48.30
48606;BME280;8482;54.396;18.590;2023-04-24T12:28:10;100134.94;;;20.45;47.53
48606;BME280;8482;54.396;18.590;2023-04-24T12:30:43;100146.34;;;20.47;46.96
48606;BME280;8482;54.396;18.590;2023-04-24T12:33:10;100143.66;;;20.47;46.42
48606;BME280;8482;54.396;18.590;2023-04-24T12:35:36;100132.47;;;20.44;45.94
48606;BME280;8482;54.396;18.590;2023-04-24T12:38:11;100132.88;;;20.47;45.32
48606;BME280;8482;54.396;18.590;2023-04-24T12:40:42;100114.66;;;20.43;45.60
48606;BME280;8482;54.396;18.590;2023-04-24T12:43:19;100111.13;;;20.42;45.71
48606;BME280;8482;54.396;18.590;2023-04-24T12:45:48;100121.31;;;20.47;45.64
48606;BME280;8482;54.396;18.590;2023-04-24T12:48:14;100121.97;;;20.56;45.44
48606;BME280;8482;54.396;18.590;2023-04-24T12:50:40;100118.03;;;20.65;44.80
48606;BME280;8482;54.396;18.590;2023-04-24T12:53:07;100115.75;;;20.68;44.34
48606;BME280;8482;54.396;18.590;2023-04-24T12:55:34;100130.50;;;20.73;44.13
48606;BME280;8482;54.396;18.590;2023-04-24T12:58:00;100107.50;;;20.70;43.93
48606;BME280;8482;54.396;18.590;2023-04-24T13:00:27;100104.78;;;20.70;44.12